sensor_id;sensor_type;location;lat;lon;timestamp;P1;durP1;ratioP1;P2;durP2;ratioP2
1677;SDS011;6034;46.864;15.216;2023-06-22T04:26:07;14.70;;;13.07;;
1677;SDS011;6034;46.864;15.216;2023-06-22T04:28:34;15.57;;;13.07;;
1677;SDS011;6034;46.864;15.216;2023-06-22T04:31:01;13.50;;;12.10;;
1677;SDS011;6034;46.864;15.216;2023-06-22T04:33:29;13.17;;;11.80;;
1677;SDS011;6034;46.864;15.216;2023-06-22T04:35:56;16.03;;;11.57;;
1677;SDS011;6034;46.864;15.216;2023-06-22T04:38:26;19.63;;;12.30;;
1677;SDS011;6034;46.864;15.216;2023-06-22T04:40:54;16.27;;;13.60;;
1677;SDS011;6034;46.864;15.216;2023-06-22T04:43:22;14.30;;;12.10;;
1677;SDS011;6034;46.864;15.216;2023-06-22T04:45:50;15.00;;;11.07;;
1677;SDS011;6034;46.864;15.216;2023-06-22T04:48:18;13.00;;;11.80;;
1677;SDS011;6034;46.864;15.216;2023-06-22T04:50:45;12.00;;;10.80;;
1677;SDS011;6034;46.864;15.216;2023-06-22T04:53:13;15.80;;;12.40;;
1677;SDS011;6034;46.864;15.216;2023-06-22T04:55:40;15.57;;;13.40;;
1677;SDS011;6034;46.864;15.216;2023-06-22T04:58:11;13.73;;;11.57;;
1677;SDS011;6034;46.864;15.216;2023-06-22T05:00:40;14.93;;;11.97;;
1677;SDS011;6034;46.864;15.216;2023-06-22T05:03:07;14.27;;;12.13;;
1677;SDS011;6034;46.864;15.216;2023-06-22T05:05:36;13.43;;;12.10;;
1677;SDS011;6034;46.864;15.216;2023-06-22T05:08:04;14.03;;;11.57;;
1677;SDS011;6034;46.864;15.216;2023-06-22T05:10:32;16.20;;;12.63;;
1677;SDS011;6034;46.864;15.216;2023-06-22T05:12:59;13.63;;;11.77;;
1677;SDS011;6034;46.864;15.216;2023-06-22T05:15:27;15.53;;;13.03;;
1677;SDS011;6034;46.864;15.216;2023-06-22T05:17:57;19.73;;;14.50;;
1677;SDS011;6034;46.864;15.216;2023-06-22T05:20:25;15.67;;;12.30;;
1677;SDS011;6034;46.864;15.216;2023-06-22T05:22:52;17.27;;;13.43;;
1677;SDS011;6034;46.864;15.216;2023-06-22T05:25:19;16.93;;;13.13;;
1677;SDS011;6034;46.864;15.216;2023-06-22T05:27:47;15.80;;;12.23;;
1677;SDS011;6034;46.864;15.216;2023-06-22T05:30:15;15.00;;;13.40;;
1677;SDS011;6034;46.864;15.216;2023-06-22T05:32:43;15.63;;;12.13;;
1677;SDS011;6034;46.864;15.216;2023-06-22T05:35:12;18.80;;;13.07;;
1677;SDS011;6034;46.864;15.216;2023-06-22T05:37:40;15.47;;;13.00;;
1677;SDS011;6034;46.864;15.216;2023-06-22T05:40:08;13.87;;;12.40;;
1677;SDS011;6034;46.864;15.216;2023-06-22T05:42:36;15.63;;;11.97;;
1677;SDS011;6034;46.864;15.216;2023-06-22T05:45:04;13.50;;;12.10;;
1677;SDS011;6034;46.864;15.216;2023-06-22T05:47:32;13.67;;;11.50;;
1677;SDS011;6034;46.864;15.216;2023-06-22T05:50:00;15.20;;;12.03;;
1677;SDS011;6034;46.864;15.216;2023-06-22T05:52:33;16.53;;;11.33;;
1677;SDS011;6034;46.864;15.216;2023-06-22T05:55:01;15.53;;;12.90;;
1677;SDS011;6034;46.864;15.216;2023-06-22T05:57:29;17.30;;;12.23;;
1677;SDS011;6034;46.864;15.216;2023-06-22T05:59:56;18.03;;;12.40;;
1677;SDS011;6034;46.864;15.216;2023-06-22T06:02:23;12.90;;;10.83;;
1677;SDS011;6034;46.864;15.216;2023-06-22T06:04:51;16.23;;;11.83;;
1677;SDS011;6034;46.864;15.216;2023-06-22T06:07:19;14.20;;;11.50;;
1677;SDS011;6034;46.864;15.216;2023-06-22T06:09:48;15.23;;;11.60;;
1677;SDS011;6034;46.864;15.216;2023-06-22T06:12:15;16.87;;;11.40;;
1677;SDS011;6034;46.864;15.216;2023-06-22T06:14:43;14.53;;;10.20;;
1677;SDS011;6034;46.864;15.216;2023-06-22T06:17:10;13.30;;;10.87;;
1677;SDS011;6034;46.864;15.216;2023-06-22T06:19:37;14.60;;;12.23;;
1677;SDS011;6034;46.864;15.216;2023-06-22T06:22:05;12.70;;;11.23;;
1677;SDS011;6034;46.864;15.216;2023-06-22T06:24:32;14.50;;;11.43;;
1677;SDS011;6034;46.864;15.216;2023-06-22T06:27:03;15.20;;;11.70;;
1677;SDS011;6034;46.864;15.216;2023-06-22T06:29:31;15.57;;;11.97;;
1677;SDS011;6034;46.864;15.216;2023-06-22T06:31:58;14.37;;;10.47;;
1677;SDS011;6034;46.864;15.216;2023-06-22T06:34:26;13.93;;;12.00;;
1677;SDS011;6034;46.864;15.216;2023-06-22T06:36:53;16.67;;;11.57;;
1677;SDS011;6034;46.864;15.216;2023-06-22T06:39:21;14.73;;;12.03;;
1677;SDS011;6034;46.864;15.216;2023-06-22T06:41:48;17.87;;;11.90;;
1677;SDS011;6034;46.864;15.216;2023-06-22T06:44:17;16.70;;;12.30;;
1677;SDS011;6034;46.864;15.216;2023-06-22T06:46:44;16.50;;;12.83;;
1677;SDS011;6034;46.864;15.216;2023-06-22T06:49:11;16.10;;;12.40;;
1677;SDS011;6034;46.864;15.216;2023-06-22T06:51:39;14.67;;;11.90;;
1677;SDS011;6034;46.864;15.216;2023-06-22T06:54:07;14.97;;;13.37;;
1677;SDS011;6034;46.864;15.216;2023-06-22T06:56:34;12.60;;;11.00;;
1677;SDS011;6034;46.864;15.216;2023-06-22T06:59:02;14.57;;;11.50;;
1677;SDS011;6034;46.864;15.216;2023-06-22T07:01:30;14.83;;;10.97;;
1677;SDS011;6034;46.864;15.216;2023-06-22T07:04:01;13.90;;;12.50;;
1677;SDS011;6034;46.864;15.216;2023-06-22T07:06:29;16.07;;;12.53;;
1677;SDS011;6034;46.864;15.216;2023-06-22T07:08:58;16.80;;;12.23;;
1677;SDS011;6034;46.864;15.216;2023-06-22T07:11:26;17.63;;;12.40;;
1677;SDS011;6034;46.864;15.216;2023-06-22T07:13:53;16.90;;;11.90;;
1677;SDS011;6034;46.864;15.216;2023-06-22T07:16:21;14.27;;;11.80;;
1677;SDS011;6034;46.864;15.216;2023-06-22T07:18:51;16.10;;;12.77;;
1677;SDS011;6034;46.864;15.216;2023-06-22T07:21:19;18.10;;;12.80;;
1677;SDS011;6034;46.864;15.216;2023-06-22T07:23:46;15.80;;;11.00;;
1677;SDS011;6034;46.864;15.216;2023-06-22T07:26:13;12.07;;;10.47;;
1677;SDS011;6034;46.864;15.216;2023-06-22T07:28:42;15.00;;;10.97;;
1677;SDS011;6034;46.864;15.216;2023-06-22T07:31:09;17.07;;;11.73;;
1677;SDS011;6034;46.864;15.216;2023-06-22T07:33:36;15.63;;;10.63;;
1677;SDS011;6034;46.864;15.216;2023-06-22T07:36:05;12.40;;;10.50;;
1677;SDS011;6034;46.864;15.216;2023-06-22T07:38:34;15.30;;;10.70;;
1677;SDS011;6034;46.864;15.216;2023-06-22T07:41:01;14.80;;;11.10;;
1677;SDS011;6034;46.864;15.216;2023-06-22T07:43:30;13.90;;;10.93;;
1677;SDS011;6034;46.864;15.216;2023-06-22T07:45:59;14.03;;;11.07;;
1677;SDS011;6034;46.864;15.216;2023-06-22T07:48:27;12.63;;;11.10;;
1677;SDS011;6034;46.864;15.216;2023-06-22T07:50:54;15.67;;;10.70;;
1677;SDS011;6034;46.864;15.216;2023-06-22T07:53:23;11.53;;;10.33;;
1677;SDS011;6034;46.864;15.216;2023-06-22T07:55:50;13.70;;;10.47;;
1677;SDS011;6034;46.864;15.216;2023-06-22T07:58:18;15.07;;;11.73;;
1677;SDS011;6034;46.864;15.216;2023-06-22T08:00:46;13.60;;;11.00;;
1677;SDS011;6034;46.864;15.216;2023-06-22T08:03:14;14.73;;;10.13;;
1677;SDS011;6034;46.864;15.216;2023-06-22T08:05:41;13.67;;;9.93;;
1677;SDS011;6034;46.864;15.216;2023-06-22T08:08:08;15.23;;;10.37;;
1677;SDS011;6034;46.864;15.216;2023-06-22T08:10:37;15.80;;;11.70;;
1677;SDS011;6034;46.864;15.216;2023-06-22T08:13:04;14.20;;;11.07;;
1677;SDS011;6034;46.864;15.216;2023-06-22T08:15:32;11.20;;;8.87;;
1677;SDS011;6034;46.864;15.216;2023-06-22T08:17:59;16.37;;;10.73;;
1677;SDS011;6034;46.864;15.216;2023-06-22T08:20:27;13.20;;;9.20;;
1677;SDS011;6034;46.864;15.216;2023-06-22T08:22:55;14.07;;;10.50;;
1677;SDS011;6034;46.864;15.216;2023-06-22T08:25:25;12.60;;;9.60;;
1677;SDS011;6034;46.864;15.216;2023-06-22T08:27:54;11.07;;;9.40;;
1677;SDS011;6034;46.864;15.216;2023-06-22T08:30:21;16.40;;;9.80;;
1677;SDS011;6034;46.864;15.216;2023-06-22T08:32:49;12.33;;;9.40;;
1677;SDS011;6034;46.864;15.216;2023-06-22T08:35:16;13.07;;;11.17;;
1677;SDS011;6034;46.864;15.216;2023-06-22T08:37:44;14.77;;;10.83;;
1677;SDS011;6034;46.864;15.216;2023-06-22T08:40:16;14.00;;;9.80;;
1677;SDS011;6034;46.864;15.216;2023-06-22T08:42:45;13.07;;;9.50;;
1677;SDS011;6034;46.864;15.216;2023-06-22T08:45:14;13.83;;;9.73;;
1677;SDS011;6034;46.864;15.216;2023-06-22T08:47:42;16.77;;;10.50;;
1677;SDS011;6034;46.864;15.216;2023-06-22T08:50:12;13.90;;;10.03;;
1677;SDS011;6034;46.864;15.216;2023-06-22T08:52:40;12.77;;;10.00;;
1677;SDS011;6034;46.864;15.216;2023-06-22T08:55:08;13.73;;;10.33;;
1677;SDS011;6034;46.864;15.216;2023-06-22T08:57:36;15.90;;;10.13;;
1677;SDS011;6034;46.864;15.216;2023-06-22T09:00:05;14.27;;;10.40;;
1677;SDS011;6034;46.864;15.216;2023-06-22T09:02:42;17.03;;;10.03;;
1677;SDS011;6034;46.864;15.216;2023-06-22T09:05:10;15.80;;;10.50;;
1677;SDS011;6034;46.864;15.216;2023-06-22T09:07:37;11.77;;;9.17;;
1677;SDS011;6034;46.864;15.216;2023-06-22T09:10:06;14.27;;;10.80;;
1677;SDS011;6034;46.864;15.216;2023-06-22T09:12:33;16.83;;;10.80;;
1677;SDS011;6034;46.864;15.216;2023-06-22T09:15:03;12.00;;;10.20;;
1677;SDS011;6034;46.864;15.216;2023-06-22T09:17:32;15.13;;;10.03;;
1677;SDS011;6034;46.864;15.216;2023-06-22T09:20:04;13.63;;;10.43;;
1677;SDS011;6034;46.864;15.216;2023-06-22T09:22:32;12.57;;;9.90;;
1677;SDS011;6034;46.864;15.216;2023-06-22T09:25:00;16.90;;;10.77;;
1677;SDS011;6034;46.864;15.216;2023-06-22T09:27:28;16.73;;;9.43;;
1677;SDS011;6034;46.864;15.216;2023-06-22T09:29:56;12.73;;;9.43;;
1677;SDS011;6034;46.864;15.216;2023-06-22T09:32:25;11.77;;;9.53;;
1677;SDS011;6034;46.864;15.216;2023-06-22T09:34:53;14.33;;;10.30;;
1677;SDS011;6034;46.864;15.216;2023-06-22T09:37:22;13.27;;;10.37;;
1677;SDS011;6034;46.864;15.216;2023-06-22T09:39:50;11.47;;;10.20;;
1677;SDS011;6034;46.864;15.216;2023-06-22T09:42:17;12.27;;;9.70;;
1677;SDS011;6034;46.864;15.216;2023-06-22T09:44:46;10.60;;;9.37;;
1677;SDS011;6034;46.864;15.216;2023-06-22T09:47:13;16.97;;;9.80;;
1677;SDS011;6034;46.864;15.216;2023-06-22T09:49:41;16.30;;;11.10;;
1677;SDS011;6034;46.864;15.216;2023-06-22T09:52:09;14.30;;;10.90;;
1677;SDS011;6034;46.864;15.216;2023-06-22T09:54:38;12.77;;;10.47;;
1677;SDS011;6034;46.864;15.216;2023-06-22T09:57:06;11.70;;;10.30;;
1677;SDS011;6034;46.864;15.216;2023-06-22T09:59:34;12.70;;;9.60;;
1677;SDS011;6034;46.864;15.216;2023-06-22T10:02:01;15.67;;;11.00;;
1677;SDS011;6034;46.864;15.216;2023-06-22T10:04:29;18.20;;;11.43;;
1677;SDS011;6034;46.864;15.216;2023-06-22T10:06:57;12.47;;;10.80;;
1677;SDS011;6034;46.864;15.216;2023-06-22T10:09:24;15.83;;;10.27;;
1677;SDS011;6034;46.864;15.216;2023-06-22T10:11:53;11.03;;;9.30;;
1677;SDS011;6034;46.864;15.216;2023-06-22T10:14:21;14.03;;;10.33;;
1677;SDS011;6034;46.864;15.216;2023-06-22T10:16:49;15.70;;;11.33;;
1677;SDS011;6034;46.864;15.216;2023-06-22T10:19:17;12.80;;;10.50;;
1677;SDS011;6034;46.864;15.216;2023-06-22T10:21:45;11.77;;;10.57;;
1677;SDS011;6034;46.864;15.216;2023-06-22T10:24:13;12.13;;;10.90;;
1677;SDS011;6034;46.864;15.216;2023-06-22T10:26:40;14.47;;;11.00;;
1677;SDS011;6034;46.864;15.216;2023-06-22T10:29:09;13.20;;;10.67;;
1677;SDS011;6034;46.864;15.216;2023-06-22T10:31:37;13.63;;;10.30;;
1677;SDS011;6034;46.864;15.216;2023-06-22T10:34:04;15.83;;;11.40;;
1677;SDS011;6034;46.864;15.216;2023-06-22T10:36:32;13.70;;;10.80;;
1677;SDS011;6034;46.864;15.216;2023-06-22T10:39:00;17.63;;;12.77;;
1677;SDS011;6034;46.864;15.216;2023-06-22T10:41:28;18.93;;;13.30;;
1677;SDS011;6034;46.864;15.216;2023-06-22T10:43:56;16.60;;;13.13;;
1677;SDS011;6034;46.864;15.216;2023-06-22T10:46:27;12.47;;;11.20;;
1677;SDS011;6034;46.864;15.216;2023-06-22T10:48:54;19.30;;;12.53;;
1677;SDS011;6034;46.864;15.216;2023-06-22T10:51:23;17.60;;;12.50;;
1677;SDS011;6034;46.864;15.216;2023-06-22T10:53:53;14.37;;;11.80;;
1677;SDS011;6034;46.864;15.216;2023-06-22T10:56:20;12.87;;;11.47;;
1677;SDS011;6034;46.864;15.216;2023-06-22T10:58:48;15.03;;;10.93;;
1677;SDS011;6034;46.864;15.216;2023-06-22T11:01:16;18.33;;;12.93;;
1677;SDS011;6034;46.864;15.216;2023-06-22T11:03:45;16.70;;;12.50;;
1677;SDS011;6034;46.864;15.216;2023-06-22T11:06:13;14.90;;;12.40;;
1677;SDS011;6034;46.864;15.216;2023-06-22T11:08:43;16.63;;;11.57;;
1677;SDS011;6034;46.864;15.216;2023-06-22T11:11:10;13.13;;;11.83;;
1677;SDS011;6034;46.864;15.216;2023-06-22T11:13:38;13.27;;;11.90;;
1677;SDS011;6034;46.864;15.216;2023-06-22T11:16:06;15.07;;;12.37;;
1677;SDS011;6034;46.864;15.216;2023-06-22T11:18:33;16.13;;;13.10;;
1677;SDS011;6034;46.864;15.216;2023-06-22T11:21:02;13.90;;;11.60;;
1677;SDS011;6034;46.864;15.216;2023-06-22T11:23:29;15.93;;;11.80;;
1677;SDS011;6034;46.864;15.216;2023-06-22T11:25:56;13.93;;;11.77;;
1677;SDS011;6034;46.864;15.216;2023-06-22T11:28:24;14.60;;;13.10;;
1677;SDS011;6034;46.864;15.216;2023-06-22T11:30:51;15.57;;;12.47;;
1677;SDS011;6034;46.864;15.216;2023-06-22T11:33:18;15.17;;;11.20;;
1677;SDS011;6034;46.864;15.216;2023-06-22T11:35:46;12.43;;;11.13;;
1677;SDS011;6034;46.864;15.216;2023-06-22T11:38:15;15.77;;;12.30;;
1677;SDS011;6034;46.864;15.216;2023-06-22T11:40:44;13.03;;;11.53;;
1677;SDS011;6034;46.864;15.216;2023-06-22T11:43:12;14.87;;;11.70;;
1677;SDS011;6034;46.864;15.216;2023-06-22T11:45:40;12.57;;;11.30;;
1677;SDS011;6034;46.864;15.216;2023-06-22T11:48:08;13.53;;;10.90;;
1677;SDS011;6034;46.864;15.216;2023-06-22T11:50:35;15.00;;;12.50;;
1677;SDS011;6034;46.864;15.216;2023-06-22T11:53:03;13.73;;;11.43;;
1677;SDS011;6034;46.864;15.216;2023-06-22T11:55:32;12.60;;;11.40;;
1677;SDS011;6034;46.864;15.216;2023-06-22T11:57:59;15.90;;;11.50;;
1677;SDS011;6034;46.864;15.216;2023-06-22T12:00:28;13.07;;;10.77;;
1677;SDS011;6034;46.864;15.216;2023-06-22T12:02:55;15.17;;;11.70;;
1677;SDS011;6034;46.864;15.216;2023-06-22T12:05:23;15.37;;;11.20;;
1677;SDS011;6034;46.864;15.216;2023-06-22T12:07:52;14.67;;;12.00;;
1677;SDS011;6034;46.864;15.216;2023-06-22T12:10:20;11.97;;;10.60;;
1677;SDS011;6034;46.864;15.216;2023-06-22T12:12:51;14.83;;;12.03;;
1677;SDS011;6034;46.864;15.216;2023-06-22T12:15:18;12.03;;;10.10;;
1677;SDS011;6034;46.864;15.216;2023-06-22T12:17:46;14.10;;;11.03;;
1677;SDS011;6034;46.864;15.216;2023-06-22T12:20:13;12.33;;;11.03;;
1677;SDS011;6034;46.864;15.216;2023-06-22T12:22:41;14.23;;;12.67;;
1677;SDS011;6034;46.864;15.216;2023-06-22T12:25:08;13.20;;;10.90;;
1677;SDS011;6034;46.864;15.216;2023-06-22T12:27:36;13.73;;;12.03;;
1677;SDS011;6034;46.864;15.216;2023-06-22T12:30:05;12.57;;;11.27;;
1677;SDS011;6034;46.864;15.216;2023-06-22T12:32:33;14.90;;;11.43;;
1677;SDS011;6034;46.864;15.216;2023-06-22T12:35:01;14.63;;;11.80;;
1677;SDS011;6034;46.864;15.216;2023-06-22T12:37:28;13.97;;;12.50;;
1677;SDS011;6034;46.864;15.216;2023-06-22T12:39:56;16.30;;;12.70;;
1677;SDS011;6034;46.864;15.216;2023-06-22T12:42:24;19.33;;;13.53;;
1677;SDS011;6034;46.864;15.216;2023-06-22T12:44:53;12.60;;;11.07;;
1677;SDS011;6034;46.864;15.216;2023-06-22T12:47:24;15.03;;;11.90;;
1677;SDS011;6034;46.864;15.216;2023-06-22T12:49:52;15.90;;;12.40;;
1677;SDS011;6034;46.864;15.216;2023-06-22T12:52:19;14.70;;;12.57;;
1677;SDS011;6034;46.864;15.216;2023-06-22T12:54:46;17.40;;;12.57;;
1677;SDS011;6034;46.864;15.216;2023-06-22T12:57:14;14.33;;;11.87;;
1677;SDS011;6034;46.864;15.216;2023-06-22T12:59:42;15.23;;;12.50;;
1677;SDS011;6034;46.864;15.216;2023-06-22T13:02:10;16.53;;;13.43;;
1677;SDS011;6034;46.864;15.216;2023-06-22T13:04:38;16.73;;;13.50;;
1677;SDS011;6034;46.864;15.216;2023-06-22T13:07:06;16.90;;;13.40;;
1677;SDS011;6034;46.864;15.216;2023-06-22T13:09:33;14.77;;;13.27;;
1677;SDS011;6034;46.864;15.216;2023-06-22T13:12:03;22.97;;;13.57;;
1677;SDS011;6034;46.864;15.216;2023-06-22T13:14:31;16.27;;;12.20;;
1677;SDS011;6034;46.864;15.216;2023-06-22T13:16:59;16.50;;;14.10;;
1677;SDS011;6034;46.864;15.216;2023-06-22T13:19:26;16.13;;;14.40;;
1677;SDS011;6034;46.864;15.216;2023-06-22T13:21:59;15.57;;;14.07;;
1677;SDS011;6034;46.864;15.216;2023-06-22T13:24:27;17.10;;;13.60;;
1677;SDS011;6034;46.864;15.216;2023-06-22T13:26:55;17.33;;;13.20;;
1677;SDS011;6034;46.864;15.216;2023-06-22T13:29:22;16.63;;;13.07;;
1677;SDS011;6034;46.864;15.216;2023-06-22T13:31:49;15.77;;;13.30;;
1677;SDS011;6034;46.864;15.216;2023-06-22T13:34:17;19.63;;;12.83;;
1677;SDS011;6034;46.864;15.216;2023-06-22T13:36:44;15.70;;;13.97;;
1677;SDS011;6034;46.864;15.216;2023-06-22T13:39:13;15.27;;;13.20;;
1677;SDS011;6034;46.864;15.216;2023-06-22T13:41:41;15.70;;;12.93;;
1677;SDS011;6034;46.864;15.216;2023-06-22T13:44:09;15.67;;;13.83;;
1677;SDS011;6034;46.864;15.216;2023-06-22T13:46:36;18.47;;;13.77;;
1677;SDS011;6034;46.864;15.216;2023-06-22T13:49:03;17.53;;;13.23;;
1677;SDS011;6034;46.864;15.216;2023-06-22T13:51:30;14.37;;;12.87;;
1677;SDS011;6034;46.864;15.216;2023-06-22T13:53:59;17.87;;;14.20;;
1677;SDS011;6034;46.864;15.216;2023-06-22T13:56:28;16.53;;;13.40;;
1677;SDS011;6034;46.864;15.216;2023-06-22T13:58:56;17.43;;;14.47;;
1677;SDS011;6034;46.864;15.216;2023-06-22T14:01:24;16.03;;;14.40;;
1677;SDS011;6034;46.864;15.216;2023-06-22T14:03:51;19.60;;;13.80;;
1677;SDS011;6034;46.864;15.216;2023-06-22T14:06:19;17.30;;;15.60;;
1677;SDS011;6034;46.864;15.216;2023-06-22T14:08:46;18.70;;;16.03;;
1677;SDS011;6034;46.864;15.216;2023-06-22T14:11:14;23.70;;;15.40;;
1677;SDS011;6034;46.864;15.216;2023-06-22T14:13:43;17.13;;;15.33;;
1677;SDS011;6034;46.864;15.216;2023-06-22T14:16:11;19.03;;;14.27;;
1677;SDS011;6034;46.864;15.216;2023-06-22T14:18:38;16.53;;;14.47;;
1677;SDS011;6034;46.864;15.216;2023-06-22T14:21:05;17.97;;;14.33;;
1677;SDS011;6034;46.864;15.216;2023-06-22T14:23:32;18.60;;;15.83;;
1677;SDS011;6034;46.864;15.216;2023-06-22T14:26:00;15.83;;;14.20;;
1677;SDS011;6034;46.864;15.216;2023-06-22T14:28:27;20.80;;;15.50;;
1677;SDS011;6034;46.864;15.216;2023-06-22T14:30:56;16.37;;;14.53;;
1677;SDS011;6034;46.864;15.216;2023-06-22T14:33:24;18.67;;;15.50;;
1677;SDS011;6034;46.864;15.216;2023-06-22T14:35:51;16.17;;;14.57;;
1677;SDS011;6034;46.864;15.216;2023-06-22T14:38:18;18.47;;;15.40;;
1677;SDS011;6034;46.864;15.216;2023-06-22T14:40:46;23.00;;;16.87;;
1677;SDS011;6034;46.864;15.216;2023-06-22T14:43:13;18.63;;;16.40;;
1677;SDS011;6034;46.864;15.216;2023-06-22T14:45:41;18.23;;;16.43;;
1677;SDS011;6034;46.864;15.216;2023-06-22T14:48:09;19.80;;;15.80;;
1677;SDS011;6034;46.864;15.216;2023-06-22T14:50:37;22.47;;;17.57;;
1677;SDS011;6034;46.864;15.216;2023-06-22T14:53:04;21.07;;;15.50;;
1677;SDS011;6034;46.864;15.216;2023-06-22T14:55:32;19.03;;;15.57;;
1677;SDS011;6034;46.864;15.216;2023-06-22T14:57:59;17.07;;;15.10;;
1677;SDS011;6034;46.864;15.216;2023-06-22T15:00:27;18.23;;;16.13;;
1677;SDS011;6034;46.864;15.216;2023-06-22T15:02:54;18.67;;;16.77;;
1677;SDS011;6034;46.864;15.216;2023-06-22T15:05:24;19.53;;;16.80;;
1677;SDS011;6034;46.864;15.216;2023-06-22T15:07:51;19.93;;;16.07;;
1677;SDS011;6034;46.864;15.216;2023-06-22T15:10:18;16.80;;;15.00;;
1677;SDS011;6034;46.864;15.216;2023-06-22T15:12:46;19.37;;;17.43;;
1677;SDS011;6034;46.864;15.216;2023-06-22T15:15:13;17.63;;;15.70;;
1677;SDS011;6034;46.864;15.216;2023-06-22T15:17:40;18.83;;;16.40;;
1677;SDS011;6034;46.864;15.216;2023-06-22T15:20:08;18.37;;;16.53;;
1677;SDS011;6034;46.864;15.216;2023-06-22T15:22:37;19.27;;;15.93;;
1677;SDS011;6034;46.864;15.216;2023-06-22T15:25:05;19.70;;;17.20;;
1677;SDS011;6034;46.864;15.216;2023-06-22T15:27:33;17.90;;;15.47;;
1677;SDS011;6034;46.864;15.216;2023-06-22T15:30:00;17.93;;;15.47;;
1677;SDS011;6034;46.864;15.216;2023-06-22T15:32:29;16.93;;;15.27;;
1677;SDS011;6034;46.864;15.216;2023-06-22T15:34:56;17.07;;;15.40;;
1677;SDS011;6034;46.864;15.216;2023-06-22T15:37:23;17.53;;;15.73;;
1677;SDS011;6034;46.864;15.216;2023-06-22T15:39:52;17.40;;;15.50;;
1677;SDS011;6034;46.864;15.216;2023-06-22T15:42:21;17.10;;;15.40;;
1677;SDS011;6034;46.864;15.216;2023-06-22T15:44:48;19.73;;;14.90;;
1677;SDS011;6034;46.864;15.216;2023-06-22T15:47:16;16.93;;;14.60;;
1677;SDS011;6034;46.864;15.216;2023-06-22T15:49:46;16.87;;;15.13;;
1677;SDS011;6034;46.864;15.216;2023-06-22T15:52:14;17.50;;;14.83;;
1677;SDS011;6034;46.864;15.216;2023-06-22T15:54:44;19.03;;;16.03;;
1677;SDS011;6034;46.864;15.216;2023-06-22T15:57:13;18.17;;;15.57;;
1677;SDS011;6034;46.864;15.216;2023-06-22T15:59:40;16.73;;;15.03;;
1677;SDS011;6034;46.864;15.216;2023-06-22T16:02:08;19.27;;;14.90;;
1677;SDS011;6034;46.864;15.216;2023-06-22T16:31:48;16.10;;;14.27;;
1677;SDS011;6034;46.864;15.216;2023-06-22T16:34:16;19.63;;;14.73;;
1677;SDS011;6034;46.864;15.216;2023-06-22T16:36:43;19.53;;;14.20;;
1677;SDS011;6034;46.864;15.216;2023-06-22T16:39:11;17.47;;;15.37;;
1677;SDS011;6034;46.864;15.216;2023-06-22T16:41:38;14.93;;;13.33;;
1677;SDS011;6034;46.864;15.216;2023-06-22T16:44:05;19.77;;;14.30;;
1677;SDS011;6034;46.864;15.216;2023-06-22T16:46:33;16.17;;;14.00;;
1677;SDS011;6034;46.864;15.216;2023-06-22T16:49:02;16.47;;;13.03;;
1677;SDS011;6034;46.864;15.216;2023-06-22T16:51:29;17.40;;;13.40;;
1677;SDS011;6034;46.864;15.216;2023-06-22T16:53:56;22.47;;;15.50;;
1677;SDS011;6034;46.864;15.216;2023-06-22T16:56:24;15.63;;;13.93;;
1677;SDS011;6034;46.864;15.216;2023-06-22T16:58:52;18.63;;;13.80;;
1677;SDS011;6034;46.864;15.216;2023-06-22T17:01:22;16.90;;;14.60;;
1677;SDS011;6034;46.864;15.216;2023-06-22T17:03:52;16.93;;;15.13;;
1677;SDS011;6034;46.864;15.216;2023-06-22T17:06:30;16.50;;;14.80;;
1677;SDS011;6034;46.864;15.216;2023-06-22T17:08:59;16.60;;;14.80;;
1677;SDS011;6034;46.864;15.216;2023-06-22T17:11:29;17.50;;;13.90;;
1677;SDS011;6034;46.864;15.216;2023-06-22T17:13:56;17.30;;;15.27;;
1677;SDS011;6034;46.864;15.216;2023-06-22T17:16:24;17.10;;;15.30;;
1677;SDS011;6034;46.864;15.216;2023-06-22T17:18:55;16.30;;;14.50;;
1677;SDS011;6034;46.864;15.216;2023-06-22T17:21:30;17.47;;;15.50;;
1677;SDS011;6034;46.864;15.216;2023-06-22T17:23:58;16.70;;;14.70;;
1677;SDS011;6034;46.864;15.216;2023-06-22T17:26:27;22.10;;;15.37;;
1677;SDS011;6034;46.864;15.216;2023-06-22T17:28:56;19.23;;;15.60;;
1677;SDS011;6034;46.864;15.216;2023-06-22T17:31:26;19.53;;;14.10;;
1677;SDS011;6034;46.864;15.216;2023-06-22T17:34:06;17.30;;;14.20;;
1677;SDS011;6034;46.864;15.216;2023-06-22T17:36:41;23.43;;;15.90;;
1677;SDS011;6034;46.864;15.216;2023-06-22T17:39:10;19.17;;;14.67;;
1677;SDS011;6034;46.864;15.216;2023-06-22T17:41:39;15.97;;;14.47;;
1677;SDS011;6034;46.864;15.216;2023-06-22T17:44:08;17.43;;;14.50;;
1677;SDS011;6034;46.864;15.216;2023-06-22T17:46:38;17.80;;;16.00;;
1677;SDS011;6034;46.864;15.216;2023-06-22T17:49:09;19.00;;;15.00;;
1677;SDS011;6034;46.864;15.216;2023-06-22T17:51:38;16.43;;;14.80;;
1677;SDS011;6034;46.864;15.216;2023-06-22T17:54:07;15.57;;;13.90;;
1677;SDS011;6034;46.864;15.216;2023-06-22T17:56:35;16.27;;;14.00;;
1677;SDS011;6034;46.864;15.216;2023-06-22T17:59:02;19.73;;;15.60;;
1677;SDS011;6034;46.864;15.216;2023-06-22T18:01:33;23.27;;;15.50;;
1677;SDS011;6034;46.864;15.216;2023-06-22T18:04:06;16.90;;;15.07;;
1677;SDS011;6034;46.864;15.216;2023-06-22T18:06:35;16.50;;;14.40;;
1677;SDS011;6034;46.864;15.216;2023-06-22T18:09:06;16.83;;;15.13;;
1677;SDS011;6034;46.864;15.216;2023-06-22T18:11:35;19.10;;;14.80;;
1677;SDS011;6034;46.864;15.216;2023-06-22T18:14:07;17.90;;;14.67;;
1677;SDS011;6034;46.864;15.216;2023-06-22T18:16:35;18.10;;;16.20;;
1677;SDS011;6034;46.864;15.216;2023-06-22T18:19:03;17.87;;;15.73;;
1677;SDS011;6034;46.864;15.216;2023-06-22T18:21:31;17.03;;;15.17;;
1677;SDS011;6034;46.864;15.216;2023-06-22T18:23:58;19.63;;;15.50;;
1677;SDS011;6034;46.864;15.216;2023-06-22T18:26:29;16.67;;;14.87;;
1677;SDS011;6034;46.864;15.216;2023-06-22T18:28:56;20.43;;;15.23;;
1677;SDS011;6034;46.864;15.216;2023-06-22T18:31:24;16.17;;;14.50;;
1677;SDS011;6034;46.864;15.216;2023-06-22T18:33:53;20.13;;;14.73;;
1677;SDS011;6034;46.864;15.216;2023-06-22T18:36:24;17.73;;;15.03;;
1677;SDS011;6034;46.864;15.216;2023-06-22T18:38:52;18.80;;;15.70;;
1677;SDS011;6034;46.864;15.216;2023-06-22T18:41:32;20.73;;;16.67;;
1677;SDS011;6034;46.864;15.216;2023-06-22T18:44:02;17.07;;;14.87;;
1677;SDS011;6034;46.864;15.216;2023-06-22T18:46:33;21.63;;;14.77;;
1677;SDS011;6034;46.864;15.216;2023-06-22T18:49:03;22.10;;;16.53;;
1677;SDS011;6034;46.864;15.216;2023-06-22T18:51:51;18.30;;;15.03;;
1677;SDS011;6034;46.864;15.216;2023-06-22T18:54:21;16.67;;;14.97;;
1677;SDS011;6034;46.864;15.216;2023-06-22T18:56:54;16.10;;;14.40;;
1677;SDS011;6034;46.864;15.216;2023-06-22T19:02:34;16.60;;;13.87;;
1677;SDS011;6034;46.864;15.216;2023-06-22T19:05:16;16.53;;;14.10;;
1677;SDS011;6034;46.864;15.216;2023-06-22T19:07:57;18.00;;;16.30;;
1677;SDS011;6034;46.864;15.216;2023-06-22T19:10:28;16.90;;;14.53;;
1677;SDS011;6034;46.864;15.216;2023-06-22T19:15:46;16.47;;;13.90;;
1677;SDS011;6034;46.864;15.216;2023-06-22T19:18:18;20.73;;;15.90;;
1677;SDS011;6034;46.864;15.216;2023-06-22T19:20:47;16.70;;;14.20;;
1677;SDS011;6034;46.864;15.216;2023-06-22T19:23:24;22.33;;;14.10;;
1677;SDS011;6034;46.864;15.216;2023-06-22T19:25:55;16.80;;;13.77;;
1677;SDS011;6034;46.864;15.216;2023-06-22T19:28:27;18.97;;;14.90;;
1677;SDS011;6034;46.864;15.216;2023-06-22T19:30:57;19.27;;;14.40;;
1677;SDS011;6034;46.864;15.216;2023-06-22T19:33:26;16.97;;;14.90;;
1677;SDS011;6034;46.864;15.216;2023-06-22T19:35:55;20.50;;;14.50;;
1677;SDS011;6034;46.864;15.216;2023-06-22T19:38:23;16.60;;;13.77;;
1677;SDS011;6034;46.864;15.216;2023-06-22T19:40:51;14.67;;;13.10;;